createdAt,value
2017-01-17T00:00:32.437Z,0
2017-01-17T00:01:41.722Z,0
2017-01-17T00:02:51.436Z,0
2017-01-17T00:04:00.765Z,0
2017-01-17T00:05:10.482Z,0
2017-01-17T00:06:20.643Z,0
2017-01-17T00:07:30.364Z,0
2017-01-17T00:08:40.522Z,0
2017-01-17T00:09:50.727Z,0
2017-01-17T00:11:00.444Z,0
2017-01-17T00:12:09.720Z,0
2017-01-17T00:13:19.874Z,0
2017-01-17T00:14:29.591Z,0
2017-01-17T00:15:39.360Z,0
2017-01-17T00:16:48.641Z,0
2017-01-17T00:17:57.926Z,0
2017-01-17T00:19:08.515Z,0
2017-01-17T00:20:19.108Z,0
2017-01-17T00:21:28.437Z,0
2017-01-17T00:22:37.722Z,0
2017-01-17T00:23:47.432Z,0
2017-01-17T00:24:57.589Z,0
2017-01-17T00:26:08.178Z,0
2017-01-17T00:27:17.607Z,0
2017-01-17T00:28:27.320Z,0
2017-01-17T00:29:37.473Z,0
2017-01-17T00:30:46.758Z,0
2017-01-17T00:31:57.787Z,0
2017-01-17T00:33:07.989Z,0
2017-01-17T00:34:18.145Z,0
2017-01-17T00:35:28.327Z,0
2017-01-17T00:36:37.615Z,0
2017-01-17T00:37:47.337Z,0
2017-01-17T00:38:57.534Z,0
2017-01-17T00:40:07.279Z,0
2017-01-17T00:41:17.865Z,0
2017-01-17T00:42:27.581Z,0
2017-01-17T00:43:37.294Z,0
2017-01-17T00:44:47.503Z,0
2017-01-17T00:45:57.228Z,0
2017-01-17T00:47:06.949Z,0
2017-01-17T00:48:17.547Z,0
2017-01-17T00:49:27.699Z,0
2017-01-17T00:50:37.129Z,0
2017-01-17T00:51:46.409Z,0
2017-01-17T00:52:55.686Z,0
2017-01-17T00:54:05.396Z,0
2017-01-17T00:55:15.553Z,0
2017-01-17T00:56:25.754Z,0
2017-01-17T00:57:35.914Z,0
2017-01-17T00:58:46.068Z,0
2017-01-17T00:59:55.785Z,0
2017-01-17T01:01:05.942Z,0
2017-01-17T01:02:16.295Z,0
2017-01-17T01:03:26.017Z,0
2017-01-17T01:04:35.733Z,0
2017-01-17T01:05:45.891Z,0
2017-01-17T01:06:55.172Z,0
2017-01-17T01:08:04.965Z,0
2017-01-17T01:09:14.686Z,0
2017-01-17T01:10:24.407Z,0
2017-01-17T01:11:33.688Z,0
2017-01-17T01:12:43.405Z,0
2017-01-17T01:13:53.178Z,0
2017-01-17T01:15:02.463Z,0
2017-01-17T01:16:11.744Z,0
2017-01-17T01:17:21.889Z,0
2017-01-17T01:18:32.054Z,0
2017-01-17T01:19:42.288Z,0
2017-01-17T01:20:52.441Z,0
2017-01-17T01:22:02.594Z,0
2017-01-17T01:23:12.751Z,0
2017-01-17T01:24:22.469Z,0
2017-01-17T01:25:32.821Z,0
2017-01-17T01:26:42.542Z,0
2017-01-17T01:27:51.843Z,0
2017-01-17T01:29:01.561Z,0
2017-01-17T01:30:11.278Z,0
2017-01-17T01:31:21.043Z,0
2017-01-17T01:32:31.199Z,0
2017-01-17T01:33:41.361Z,0
2017-01-17T01:34:51.510Z,0
2017-01-17T01:36:02.101Z,0
2017-01-17T01:37:12.744Z,0
2017-01-17T01:38:22.901Z,0
2017-01-17T01:39:33.055Z,0
2017-01-17T01:40:42.360Z,0
2017-01-17T01:41:52.536Z,0
2017-01-17T01:43:03.614Z,0
2017-01-17T01:44:13.775Z,0
2017-01-17T01:45:23.496Z,0
2017-01-17T01:46:33.209Z,0
2017-01-17T01:47:42.926Z,0
2017-01-17T01:48:53.673Z,0
2017-01-17T01:50:03.832Z,0
2017-01-17T01:51:13.983Z,0
2017-01-17T01:52:23.703Z,0
2017-01-17T01:53:34.296Z,0
2017-01-17T01:54:44.073Z,0
2017-01-17T01:55:54.666Z,0
2017-01-17T01:57:04.392Z,0
2017-01-17T01:58:14.109Z,0
2017-01-17T01:59:23.386Z,0
2017-01-17T02:00:33.615Z,0
2017-01-17T02:01:43.772Z,0
2017-01-17T02:02:53.929Z,0
2017-01-17T02:04:03.666Z,0
2017-01-17T02:05:13.824Z,0
2017-01-17T02:06:23.593Z,0
2017-01-17T02:07:32.878Z,0
2017-01-17T02:08:42.159Z,0
2017-01-17T02:09:52.320Z,0
2017-01-17T02:11:02.053Z,0
2017-01-17T02:12:11.822Z,0
2017-01-17T02:13:21.539Z,0
2017-01-17T02:14:31.709Z,0
2017-01-17T02:15:41.875Z,0
2017-01-17T02:16:51.587Z,0
2017-01-17T02:18:01.788Z,0
2017-01-17T02:19:11.949Z,0
2017-01-17T02:20:21.258Z,0
2017-01-17T02:21:31.416Z,0
2017-01-17T02:22:41.129Z,0
2017-01-17T02:23:50.898Z,0
2017-01-17T02:25:00.183Z,0
2017-01-17T02:26:10.768Z,0
2017-01-17T02:27:20.490Z,0
2017-01-17T02:28:30.215Z,0
2017-01-17T02:29:39.540Z,0
2017-01-17T02:30:48.821Z,0
2017-01-17T02:31:58.106Z,0
2017-01-17T02:33:08.707Z,0
2017-01-17T02:34:18.864Z,0
2017-01-17T02:35:28.629Z,0
2017-01-17T02:36:39.218Z,0
2017-01-17T02:37:50.256Z,0
2017-01-17T02:39:00.413Z,0
2017-01-17T02:40:11.018Z,0
2017-01-17T02:41:21.672Z,0
2017-01-17T02:42:31.384Z,0
2017-01-17T02:43:41.558Z,0
2017-01-17T02:44:50.839Z,0
2017-01-17T02:46:00.568Z,0
2017-01-17T02:47:10.349Z,0
2017-01-17T02:48:20.510Z,0
2017-01-17T02:49:30.668Z,0
2017-01-17T02:50:39.952Z,0
2017-01-17T02:51:50.550Z,0
2017-01-17T02:53:01.307Z,0
2017-01-17T02:54:10.588Z,0
2017-01-17T02:55:19.873Z,0
2017-01-17T02:56:30.039Z,0
2017-01-17T02:57:39.320Z,0
2017-01-17T02:58:49.101Z,0
2017-01-17T02:59:58.822Z,0
2017-01-17T03:01:08.991Z,0
2017-01-17T03:02:18.713Z,0
2017-01-17T03:03:28.462Z,0
2017-01-17T03:04:39.115Z,0
2017-01-17T03:05:48.396Z,0
2017-01-17T03:06:58.129Z,0
2017-01-17T03:08:07.847Z,0
2017-01-17T03:09:17.560Z,0
2017-01-17T03:10:27.395Z,0
2017-01-17T03:11:37.570Z,0
2017-01-17T03:12:47.739Z,0
2017-01-17T03:13:57.468Z,0
2017-01-17T03:15:07.189Z,0
2017-01-17T03:16:16.523Z,0
2017-01-17T03:17:26.249Z,0
2017-01-17T03:18:35.977Z,0
2017-01-17T03:19:46.146Z,0
2017-01-17T03:20:56.316Z,0
2017-01-17T03:22:06.557Z,0
2017-01-17T03:23:15.858Z,0
2017-01-17T03:24:25.619Z,0
2017-01-17T03:25:34.904Z,0
2017-01-17T03:26:45.066Z,0
2017-01-17T03:27:55.290Z,0
2017-01-17T03:29:05.896Z,0
2017-01-17T03:30:16.057Z,0
2017-01-17T03:31:26.227Z,0
2017-01-17T03:32:36.388Z,0
2017-01-17T03:33:47.477Z,0
2017-01-17T03:34:56.778Z,0
2017-01-17T03:36:06.064Z,0
2017-01-17T03:37:15.793Z,0
2017-01-17T03:38:25.078Z,0
2017-01-17T03:39:35.287Z,0
2017-01-17T03:40:45.018Z,0
2017-01-17T03:41:55.185Z,0
2017-01-17T03:43:04.470Z,0
2017-01-17T03:44:14.632Z,0
2017-01-17T03:45:24.845Z,0
2017-01-17T03:46:34.574Z,0
2017-01-17T03:47:44.299Z,0
2017-01-17T03:48:54.028Z,0
2017-01-17T03:50:03.746Z,0
2017-01-17T03:51:13.083Z,0
2017-01-17T03:52:23.260Z,0
2017-01-17T03:53:32.989Z,0
2017-01-17T03:54:42.278Z,0
2017-01-17T03:55:51.556Z,0
2017-01-17T03:57:01.765Z,0
2017-01-17T03:58:11.054Z,0
2017-01-17T03:59:20.779Z,0
2017-01-17T04:00:30.500Z,0
2017-01-17T04:01:40.258Z,0
2017-01-17T04:02:50.488Z,0
2017-01-17T04:04:00.212Z,0
2017-01-17T04:05:10.369Z,0
2017-01-17T04:06:20.535Z,0
2017-01-17T04:07:29.824Z,0
2017-01-17T04:08:39.629Z,0
2017-01-17T04:09:49.790Z,0
2017-01-17T04:10:59.504Z,0
2017-01-17T04:12:09.237Z,0
2017-01-17T04:13:18.966Z,0
2017-01-17T04:14:29.183Z,0
2017-01-17T04:15:39.356Z,0
2017-01-17T04:16:49.545Z,0
2017-01-17T04:17:58.839Z,0
2017-01-17T04:19:09.436Z,0
2017-01-17T04:20:19.213Z,0
2017-01-17T04:21:28.930Z,0
2017-01-17T04:22:38.216Z,0
2017-01-17T04:23:48.377Z,0
2017-01-17T04:24:57.658Z,0
2017-01-17T04:26:06.991Z,0
2017-01-17T04:27:16.713Z,0
2017-01-17T04:28:27.310Z,0
2017-01-17T04:29:37.039Z,0
2017-01-17T04:30:46.760Z,0
2017-01-17T04:31:56.557Z,0
2017-01-17T04:33:06.282Z,0
2017-01-17T04:34:16.444Z,0
2017-01-17T04:35:25.724Z,0
2017-01-17T04:36:36.322Z,0
2017-01-17T04:37:46.523Z,0
2017-01-17T04:38:56.248Z,0
2017-01-17T04:40:06.406Z,0
2017-01-17T04:41:15.691Z,0
2017-01-17T04:42:25.412Z,0
2017-01-17T04:43:35.617Z,0
2017-01-17T04:44:45.780Z,0
2017-01-17T04:45:55.512Z,0
2017-01-17T04:47:05.241Z,0
2017-01-17T04:48:14.958Z,0
2017-01-17T04:49:24.291Z,0
2017-01-17T04:50:34.016Z,0
2017-01-17T04:51:43.742Z,0
2017-01-17T04:52:53.023Z,0
2017-01-17T04:54:02.752Z,0
2017-01-17T04:55:12.966Z,0
2017-01-17T04:56:23.579Z,0
2017-01-17T04:57:33.332Z,0
2017-01-17T04:58:43.061Z,0
2017-01-17T04:59:53.230Z,0
2017-01-17T05:01:02.563Z,0
2017-01-17T05:02:13.164Z,0
2017-01-17T05:03:22.449Z,0
2017-01-17T05:04:31.730Z,0
2017-01-17T05:05:41.488Z,0
2017-01-17T05:06:51.269Z,0
2017-01-17T05:08:01.439Z,0
2017-01-17T05:09:11.160Z,0
2017-01-17T05:10:20.445Z,0
2017-01-17T05:11:30.166Z,0
2017-01-17T05:12:39.931Z,0
2017-01-17T05:13:49.220Z,0
2017-01-17T05:14:58.953Z,0
2017-01-17T05:16:09.991Z,0
2017-01-17T05:17:20.160Z,0
2017-01-17T05:18:29.929Z,0
2017-01-17T05:19:39.206Z,0
2017-01-17T05:20:48.936Z,0
2017-01-17T05:21:59.540Z,0
2017-01-17T05:23:08.826Z,0
2017-01-17T05:24:19.043Z,0
2017-01-17T05:25:28.799Z,0
2017-01-17T05:26:38.086Z,0
2017-01-17T05:27:48.243Z,0
2017-01-17T05:28:58.400Z,0
2017-01-17T05:30:08.181Z,0
2017-01-17T05:31:17.462Z,0
2017-01-17T05:32:28.071Z,0
2017-01-17T05:33:37.796Z,0
2017-01-17T05:34:47.517Z,0
2017-01-17T05:35:57.294Z,0
2017-01-17T05:37:07.455Z,0
2017-01-17T05:38:17.185Z,0
2017-01-17T05:39:28.218Z,0
2017-01-17T05:40:37.495Z,0
2017-01-17T05:41:47.752Z,0
2017-01-17T05:42:58.349Z,0
2017-01-17T05:44:08.071Z,0
2017-01-17T05:45:17.792Z,0
2017-01-17T05:46:27.949Z,0
2017-01-17T05:47:37.722Z,0
2017-01-17T05:48:47.443Z,0
2017-01-17T05:49:57.168Z,0
2017-01-17T05:51:06.894Z,0
2017-01-17T05:52:16.615Z,0
2017-01-17T05:53:26.824Z,0
2017-01-17T05:54:37.421Z,0
2017-01-17T05:55:48.026Z,0
2017-01-17T05:56:57.755Z,0
2017-01-17T05:58:07.061Z,0
2017-01-17T05:59:16.830Z,0
2017-01-17T06:00:26.127Z,0
2017-01-17T06:01:36.736Z,0
2017-01-17T06:02:46.453Z,0
2017-01-17T06:03:56.619Z,0
2017-01-17T06:05:06.828Z,0
2017-01-17T06:06:17.025Z,0
2017-01-17T06:07:26.742Z,0
2017-01-17T06:08:37.335Z,0
2017-01-17T06:09:46.616Z,0
2017-01-17T06:10:56.822Z,0
2017-01-17T06:12:06.539Z,0
2017-01-17T06:13:15.824Z,0
2017-01-17T06:14:25.989Z,0
2017-01-17T06:15:35.715Z,0
2017-01-17T06:16:45.519Z,0
2017-01-17T06:17:55.273Z,0
2017-01-17T06:19:05.446Z,0
2017-01-17T06:20:15.167Z,0
2017-01-17T06:21:24.456Z,0
2017-01-17T06:22:34.233Z,0
2017-01-17T06:23:43.942Z,0
2017-01-17T06:24:53.688Z,0
2017-01-17T06:26:03.857Z,0
2017-01-17T06:27:14.022Z,0
2017-01-17T06:28:24.672Z,0
2017-01-17T06:29:34.396Z,0
2017-01-17T06:30:44.554Z,0
2017-01-17T06:31:54.723Z,0
2017-01-17T06:33:04.003Z,0
2017-01-17T06:34:13.777Z,0
2017-01-17T06:35:24.826Z,0
2017-01-17T06:36:34.112Z,0
2017-01-17T06:37:44.273Z,0
2017-01-17T06:38:54.430Z,0
2017-01-17T06:40:05.087Z,0
2017-01-17T06:41:15.252Z,0
2017-01-17T06:42:24.978Z,0
2017-01-17T06:43:35.151Z,0
2017-01-17T06:44:45.312Z,0
2017-01-17T06:45:54.645Z,0
2017-01-17T06:47:04.810Z,0
2017-01-17T06:48:14.977Z,0
2017-01-17T06:49:25.141Z,0
2017-01-17T06:50:34.858Z,0
2017-01-17T06:51:44.215Z,0
2017-01-17T06:52:53.500Z,0
2017-01-17T06:54:03.225Z,0
2017-01-17T06:55:12.955Z,0
2017-01-17T06:56:22.276Z,0
2017-01-17T06:57:32.045Z,0
2017-01-17T06:58:42.650Z,0
2017-01-17T06:59:52.375Z,0
2017-01-17T07:01:02.540Z,0
2017-01-17T07:02:12.701Z,0
2017-01-17T07:03:22.061Z,0
2017-01-17T07:04:31.780Z,0
2017-01-17T07:05:41.509Z,0
2017-01-17T07:06:51.238Z,0
2017-01-17T07:08:01.399Z,0
2017-01-17T07:09:11.616Z,0
2017-01-17T07:10:20.894Z,0
2017-01-17T07:11:31.496Z,0
2017-01-17T07:12:41.220Z,0
2017-01-17T07:13:51.385Z,0
2017-01-17T07:15:02.474Z,0
2017-01-17T07:16:12.196Z,0
2017-01-17T07:17:22.805Z,0
2017-01-17T07:18:32.966Z,0
2017-01-17T07:19:42.247Z,0
2017-01-17T07:20:52.464Z,0
2017-01-17T07:22:02.190Z,0
2017-01-17T07:23:11.919Z,0
2017-01-17T07:24:22.068Z,0
2017-01-17T07:25:31.353Z,0
2017-01-17T07:26:41.126Z,0
2017-01-17T07:27:50.863Z,0
2017-01-17T07:29:00.608Z,0
2017-01-17T07:30:10.337Z,0
2017-01-17T07:31:20.059Z,0
2017-01-17T07:32:29.844Z,0
2017-01-17T07:33:39.569Z,0
2017-01-17T07:34:49.287Z,0
2017-01-17T07:35:59.020Z,0
2017-01-17T07:37:09.195Z,0
2017-01-17T07:38:19.411Z,0
2017-01-17T07:39:28.699Z,0
2017-01-17T07:40:38.845Z,0
2017-01-17T07:41:48.574Z,0
2017-01-17T07:42:58.742Z,0
2017-01-17T07:44:08.952Z,0
2017-01-17T07:45:18.673Z,5
2017-01-17T07:46:29.270Z,5
2017-01-17T07:47:39.870Z,5
2017-01-17T07:48:49.590Z,5
2017-01-17T07:49:58.922Z,5
2017-01-17T07:51:09.539Z,5
2017-01-17T07:52:19.272Z,5
2017-01-17T07:53:29.433Z,5
2017-01-17T07:54:38.726Z,5
2017-01-17T07:55:48.487Z,5
2017-01-17T07:56:57.796Z,5
2017-01-17T07:58:07.077Z,5
2017-01-17T07:59:16.358Z,5
2017-01-17T08:00:26.523Z,5
2017-01-17T08:01:36.300Z,5
2017-01-17T08:02:46.454Z,5
2017-01-17T08:03:56.615Z,10
2017-01-17T08:05:06.340Z,5
2017-01-17T08:06:16.933Z,5
2017-01-17T08:07:26.714Z,5
2017-01-17T08:08:36.427Z,5
2017-01-17T08:09:45.706Z,10
2017-01-17T08:10:55.878Z,10
2017-01-17T08:12:06.907Z,10
2017-01-17T08:13:18.508Z,10
2017-01-17T08:14:28.765Z,10
2017-01-17T08:15:41.273Z,10
2017-01-17T08:16:52.083Z,10
2017-01-17T08:18:01.621Z,10
2017-01-17T08:19:12.638Z,15
2017-01-17T08:20:22.639Z,15
2017-01-17T08:21:32.376Z,15
2017-01-17T08:22:42.545Z,15
2017-01-17T08:23:52.276Z,20
2017-01-17T08:25:02.052Z,15
2017-01-17T08:26:11.357Z,20
2017-01-17T08:27:21.521Z,20
2017-01-17T08:28:30.803Z,20
2017-01-17T08:29:41.396Z,20
2017-01-17T08:30:51.165Z,20
2017-01-17T08:32:01.323Z,25
2017-01-17T08:33:11.044Z,25
2017-01-17T08:34:20.324Z,20
2017-01-17T08:35:29.606Z,20
2017-01-17T08:36:38.962Z,20
2017-01-17T08:37:48.248Z,25
2017-01-17T08:38:58.413Z,25
2017-01-17T08:40:08.566Z,25
2017-01-17T08:41:18.735Z,25
2017-01-17T08:42:29.385Z,25
2017-01-17T08:43:38.670Z,25
2017-01-17T08:44:48.835Z,20
2017-01-17T08:45:58.117Z,20
2017-01-17T08:47:07.397Z,20
2017-01-17T08:48:16.730Z,15
2017-01-17T08:49:26.903Z,20
2017-01-17T08:50:37.068Z,20
2017-01-17T08:51:46.805Z,20
2017-01-17T08:52:56.522Z,15
2017-01-17T08:54:06.295Z,15
2017-01-17T08:55:16.909Z,15
2017-01-17T08:56:27.062Z,15
2017-01-17T08:57:36.359Z,15
2017-01-17T08:58:45.656Z,15
2017-01-17T08:59:56.313Z,20
2017-01-17T09:01:05.599Z,15
2017-01-17T09:02:15.791Z,20
2017-01-17T09:03:25.961Z,20
2017-01-17T09:04:35.686Z,15
2017-01-17T09:05:45.895Z,15
2017-01-17T09:06:55.176Z,15
2017-01-17T09:08:05.769Z,15
2017-01-17T09:09:15.939Z,15
2017-01-17T09:10:26.547Z,20
2017-01-17T09:11:36.913Z,20
2017-01-17T09:12:46.630Z,20
2017-01-17T09:13:56.799Z,25
2017-01-17T09:15:06.540Z,20
2017-01-17T09:16:16.266Z,20
2017-01-17T09:17:25.595Z,25
2017-01-17T09:18:35.324Z,25
2017-01-17T09:19:45.044Z,20
2017-01-17T09:20:54.766Z,20
2017-01-17T09:22:05.367Z,25
2017-01-17T09:23:15.132Z,30
2017-01-17T09:24:25.306Z,30
2017-01-17T09:25:34.599Z,25
2017-01-17T09:26:43.883Z,30
2017-01-17T09:27:54.045Z,30
2017-01-17T09:29:03.382Z,30
2017-01-17T09:30:13.979Z,35
2017-01-17T09:31:23.260Z,40
2017-01-17T09:32:32.986Z,35
2017-01-17T09:33:42.274Z,40
2017-01-17T09:34:52.480Z,45
2017-01-17T09:36:02.205Z,40
2017-01-17T09:37:12.362Z,35
2017-01-17T09:38:22.519Z,35
2017-01-17T09:39:32.684Z,30
2017-01-17T09:40:42.925Z,25
2017-01-17T09:41:53.087Z,30
2017-01-17T09:43:03.248Z,30
2017-01-17T09:44:12.529Z,35
2017-01-17T09:45:22.698Z,40
2017-01-17T09:46:32.471Z,40
2017-01-17T09:47:41.753Z,40
2017-01-17T09:48:51.481Z,40
2017-01-17T09:50:01.275Z,45
2017-01-17T09:51:10.996Z,40
2017-01-17T09:52:20.761Z,40
2017-01-17T09:53:30.483Z,40
2017-01-17T09:54:39.767Z,40
2017-01-17T09:55:49.925Z,40
2017-01-17T09:57:00.130Z,40
2017-01-17T09:58:10.343Z,40
2017-01-17T09:59:20.504Z,40
2017-01-17T10:00:30.662Z,40
2017-01-17T10:01:40.390Z,40
2017-01-17T10:02:50.556Z,35
2017-01-17T10:03:59.953Z,30
2017-01-17T10:05:09.694Z,25
2017-01-17T10:06:19.415Z,25
2017-01-17T10:07:29.145Z,20
2017-01-17T10:08:39.750Z,20
2017-01-17T10:09:49.963Z,25
2017-01-17T10:11:00.133Z,30
2017-01-17T10:12:09.858Z,30
2017-01-17T10:13:19.590Z,35
2017-01-17T10:14:29.316Z,35
2017-01-17T10:15:39.529Z,35
2017-01-17T10:16:48.818Z,35
2017-01-17T10:17:58.975Z,30
2017-01-17T10:19:08.256Z,25
2017-01-17T10:20:17.542Z,25
2017-01-17T10:21:26.875Z,30
2017-01-17T10:22:36.600Z,30
2017-01-17T10:23:46.325Z,30
2017-01-17T10:24:56.044Z,35
2017-01-17T10:26:05.327Z,40
2017-01-17T10:27:15.541Z,40
2017-01-17T10:28:26.142Z,40
2017-01-17T10:29:35.851Z,45
2017-01-17T10:30:45.136Z,50
2017-01-17T10:31:54.413Z,40
2017-01-17T10:33:04.182Z,35
2017-01-17T10:34:13.900Z,40
2017-01-17T10:35:23.181Z,40
2017-01-17T10:36:32.902Z,40
2017-01-17T10:37:42.187Z,35
2017-01-17T10:38:52.840Z,35
2017-01-17T10:40:02.565Z,35
2017-01-17T10:41:12.282Z,30
2017-01-17T10:42:22.004Z,30
2017-01-17T10:43:31.729Z,25
2017-01-17T10:44:42.378Z,30
2017-01-17T10:45:52.107Z,30
2017-01-17T10:47:01.389Z,30
2017-01-17T10:48:11.990Z,35
2017-01-17T10:49:21.711Z,35
2017-01-17T10:50:31.924Z,35
2017-01-17T10:51:41.653Z,35
2017-01-17T10:52:51.366Z,40
2017-01-17T10:54:01.523Z,35
2017-01-17T10:55:10.805Z,45
2017-01-17T10:56:21.467Z,50
2017-01-17T10:57:31.223Z,55
2017-01-17T10:58:41.381Z,45
2017-01-17T10:59:51.553Z,45
2017-01-17T11:01:01.752Z,40
2017-01-17T11:02:11.532Z,35
2017-01-17T11:03:21.261Z,35
2017-01-17T11:04:30.542Z,30
2017-01-17T11:05:40.260Z,35
2017-01-17T11:06:49.985Z,35
2017-01-17T11:08:00.642Z,30
2017-01-17T11:09:10.371Z,30
2017-01-17T11:10:20.116Z,25
2017-01-17T11:11:29.838Z,25
2017-01-17T11:12:39.119Z,25
2017-01-17T11:13:48.896Z,25
2017-01-17T11:14:58.621Z,25
2017-01-17T11:16:08.787Z,25
2017-01-17T11:17:18.516Z,25
2017-01-17T11:18:28.232Z,30
2017-01-17T11:19:38.598Z,30
2017-01-17T11:20:48.763Z,30
2017-01-17T11:21:58.492Z,30
2017-01-17T11:23:07.773Z,35
2017-01-17T11:24:18.378Z,40
2017-01-17T11:25:28.156Z,40
2017-01-17T11:26:38.317Z,35
2017-01-17T11:27:47.599Z,35
2017-01-17T11:28:57.759Z,40
2017-01-17T11:30:07.040Z,40
2017-01-17T11:31:17.257Z,40
2017-01-17T11:32:26.967Z,40
2017-01-17T11:33:37.580Z,35
2017-01-17T11:34:47.306Z,35
2017-01-17T11:35:56.586Z,30
2017-01-17T11:37:06.364Z,30
2017-01-17T11:38:16.957Z,25
2017-01-17T11:39:27.123Z,25
2017-01-17T11:40:36.407Z,25
2017-01-17T11:41:46.128Z,25
2017-01-17T11:42:56.334Z,30
2017-01-17T11:44:05.611Z,30
2017-01-17T11:45:15.328Z,30
2017-01-17T11:46:25.057Z,30
2017-01-17T11:47:34.779Z,30
2017-01-17T11:48:44.552Z,30
2017-01-17T11:49:54.277Z,30
2017-01-17T11:51:04.886Z,30
2017-01-17T11:52:14.615Z,30
2017-01-17T11:53:23.901Z,35
2017-01-17T11:54:34.131Z,30
2017-01-17T11:55:43.854Z,30
2017-01-17T11:56:54.016Z,30
2017-01-17T11:58:03.733Z,30
2017-01-17T11:59:13.014Z,30
2017-01-17T12:00:23.227Z,30
2017-01-17T12:01:33.396Z,25
2017-01-17T12:02:43.122Z,25
2017-01-17T12:03:53.283Z,25
2017-01-17T12:05:03.008Z,25
2017-01-17T12:06:12.341Z,30
2017-01-17T12:07:22.510Z,25
2017-01-17T12:08:32.231Z,25
2017-01-17T12:09:42.396Z,25
2017-01-17T12:10:52.121Z,25
2017-01-17T12:12:02.338Z,30
2017-01-17T12:13:12.499Z,30
2017-01-17T12:14:21.777Z,30
2017-01-17T12:15:31.054Z,30
2017-01-17T12:16:41.223Z,30
2017-01-17T12:17:51.436Z,30
2017-01-17T12:19:01.149Z,25
2017-01-17T12:20:10.874Z,25
2017-01-17T12:21:20.604Z,25
2017-01-17T12:22:29.885Z,30
2017-01-17T12:23:39.213Z,30
2017-01-17T12:24:48.963Z,30
2017-01-17T12:25:58.244Z,30
2017-01-17T12:27:07.969Z,30
2017-01-17T12:28:17.242Z,30
2017-01-17T12:29:27.451Z,35
2017-01-17T12:30:36.732Z,35
2017-01-17T12:31:46.009Z,40
2017-01-17T12:32:55.759Z,40
2017-01-17T12:34:05.476Z,35
2017-01-17T12:35:15.697Z,40
2017-01-17T12:36:25.430Z,40
2017-01-17T12:37:35.159Z,35
2017-01-17T12:38:45.760Z,35
2017-01-17T12:39:55.926Z,35
2017-01-17T12:41:05.719Z,30
2017-01-17T12:42:15.004Z,30
2017-01-17T12:43:24.721Z,30
2017-01-17T12:44:34.882Z,30
2017-01-17T12:45:44.627Z,35
2017-01-17T12:46:54.404Z,35
2017-01-17T12:48:05.009Z,35
2017-01-17T12:49:15.158Z,35
2017-01-17T12:50:24.875Z,30
2017-01-17T12:51:34.612Z,30
2017-01-17T12:52:44.380Z,30
2017-01-17T12:53:54.561Z,30
2017-01-17T12:55:04.283Z,30
2017-01-17T12:56:13.567Z,30
2017-01-17T12:57:22.852Z,30
2017-01-17T12:58:33.077Z,30
2017-01-17T12:59:43.247Z,30
2017-01-17T13:00:53.847Z,30
2017-01-17T13:02:03.564Z,25
2017-01-17T13:03:13.720Z,25
2017-01-17T13:04:23.493Z,25
2017-01-17T13:05:33.215Z,25
2017-01-17T13:06:43.376Z,20
2017-01-17T13:07:53.532Z,20
2017-01-17T13:09:03.257Z,25
2017-01-17T13:10:13.910Z,25
2017-01-17T13:11:23.191Z,20
2017-01-17T13:12:32.912Z,20
2017-01-17T13:13:43.109Z,20
2017-01-17T13:14:53.714Z,25
2017-01-17T13:16:03.479Z,25
2017-01-17T13:17:12.760Z,25
2017-01-17T13:18:22.513Z,25
2017-01-17T13:19:33.106Z,25
2017-01-17T13:20:43.706Z,25
2017-01-17T13:21:54.796Z,30
2017-01-17T13:23:04.076Z,30
2017-01-17T13:24:13.363Z,30
2017-01-17T13:25:23.970Z,30
2017-01-17T13:26:34.139Z,25
2017-01-17T13:27:44.344Z,20
2017-01-17T13:28:54.062Z,20
2017-01-17T13:30:04.222Z,20
2017-01-17T13:31:14.415Z,20
2017-01-17T13:32:24.132Z,25
2017-01-17T13:33:34.789Z,25
2017-01-17T13:34:45.390Z,25
2017-01-17T13:35:55.123Z,25
2017-01-17T13:37:04.847Z,20
2017-01-17T13:38:14.573Z,20
2017-01-17T13:39:24.790Z,20
2017-01-17T13:40:34.506Z,20
2017-01-17T13:41:44.223Z,20
2017-01-17T13:42:54.380Z,20
2017-01-17T13:44:04.541Z,25
2017-01-17T13:45:14.738Z,25
2017-01-17T13:46:24.904Z,25
2017-01-17T13:47:35.068Z,25
2017-01-17T13:48:44.349Z,25
2017-01-17T13:49:54.066Z,25
2017-01-17T13:51:04.275Z,25
2017-01-17T13:52:14.004Z,25
2017-01-17T13:53:23.725Z,20
2017-01-17T13:54:33.450Z,20
2017-01-17T13:55:43.623Z,20
2017-01-17T13:56:54.724Z,20
2017-01-17T13:58:04.457Z,20
2017-01-17T13:59:14.186Z,20
2017-01-17T14:00:23.462Z,20
2017-01-17T14:01:32.748Z,20
2017-01-17T14:02:42.548Z,20
2017-01-17T14:03:52.265Z,20
2017-01-17T14:05:02.423Z,20
2017-01-17T14:06:12.587Z,15
2017-01-17T14:07:22.753Z,15
2017-01-17T14:08:32.525Z,15
2017-01-17T14:09:43.134Z,15
2017-01-17T14:10:53.288Z,15
2017-01-17T14:12:03.005Z,15
2017-01-17T14:13:13.165Z,15
2017-01-17T14:14:22.938Z,15
2017-01-17T14:15:32.663Z,15
2017-01-17T14:16:42.387Z,15
2017-01-17T14:17:52.117Z,15
2017-01-17T14:19:02.722Z,15
2017-01-17T14:20:13.043Z,15
2017-01-17T14:21:22.764Z,15
2017-01-17T14:22:32.484Z,15
2017-01-17T14:23:41.761Z,15
2017-01-17T14:24:51.490Z,15
2017-01-17T14:26:00.827Z,15
2017-01-17T14:27:10.556Z,15
2017-01-17T14:28:20.709Z,15
2017-01-17T14:29:30.434Z,15
2017-01-17T14:30:40.182Z,10
2017-01-17T14:31:50.840Z,10
2017-01-17T14:33:00.574Z,10
2017-01-17T14:34:09.854Z,10
2017-01-17T14:35:19.132Z,10
2017-01-17T14:36:29.290Z,10
2017-01-17T14:37:39.934Z,10
2017-01-17T14:38:49.212Z,10
2017-01-17T14:39:58.498Z,10
2017-01-17T14:41:08.218Z,10
2017-01-17T14:42:18.379Z,10
2017-01-17T14:43:27.717Z,10
2017-01-17T14:44:37.442Z,10
2017-01-17T14:45:47.611Z,10
2017-01-17T14:46:56.896Z,10
2017-01-17T14:48:06.626Z,10
2017-01-17T14:49:15.959Z,10
2017-01-17T14:50:25.672Z,10
2017-01-17T14:51:35.842Z,10
2017-01-17T14:52:46.003Z,10
2017-01-17T14:53:56.180Z,10
2017-01-17T14:55:06.842Z,10
2017-01-17T14:56:17.451Z,10
2017-01-17T14:57:27.176Z,10
2017-01-17T14:58:37.342Z,10
2017-01-17T14:59:46.623Z,10
2017-01-17T15:00:56.396Z,10
2017-01-17T15:02:06.122Z,5
2017-01-17T15:03:16.291Z,5
2017-01-17T15:04:26.452Z,5
2017-01-17T15:05:35.734Z,5
2017-01-17T15:06:45.951Z,5
2017-01-17T15:07:56.112Z,5
2017-01-17T15:09:05.842Z,5
2017-01-17T15:10:16.003Z,5
2017-01-17T15:11:25.284Z,5
2017-01-17T15:12:35.498Z,0
2017-01-17T15:13:45.259Z,0
2017-01-17T15:14:54.984Z,0
2017-01-17T15:16:04.702Z,0
2017-01-17T15:17:13.987Z,0
2017-01-17T15:18:24.792Z,0
2017-01-17T15:19:34.542Z,0
2017-01-17T15:20:43.831Z,0
2017-01-17T15:21:53.108Z,0
2017-01-17T15:23:02.833Z,0
2017-01-17T15:24:13.047Z,0
2017-01-17T15:25:22.792Z,0
2017-01-17T15:26:32.509Z,0
2017-01-17T15:27:41.791Z,0
2017-01-17T15:28:51.512Z,0
2017-01-17T15:30:01.293Z,0
2017-01-17T15:31:11.454Z,0
2017-01-17T15:32:22.064Z,0
2017-01-17T15:33:31.341Z,0
2017-01-17T15:34:41.494Z,0
2017-01-17T15:35:51.699Z,0
2017-01-17T15:37:01.416Z,0
2017-01-17T15:38:10.702Z,0
2017-01-17T15:39:20.875Z,0
2017-01-17T15:40:30.600Z,0
2017-01-17T15:41:40.393Z,0
2017-01-17T15:42:49.683Z,0
2017-01-17T15:43:59.873Z,0
2017-01-17T15:45:09.606Z,0
2017-01-17T15:46:19.331Z,0
2017-01-17T15:47:29.105Z,0
2017-01-17T15:48:38.826Z,0
2017-01-17T15:49:48.548Z,0
2017-01-17T15:50:58.709Z,0
2017-01-17T15:52:08.434Z,0
2017-01-17T15:53:18.204Z,0
2017-01-17T15:54:27.491Z,0
2017-01-17T15:55:37.211Z,0
2017-01-17T15:56:47.384Z,0
2017-01-17T15:57:57.990Z,0
2017-01-17T15:59:08.219Z,0
2017-01-17T16:00:17.932Z,0
2017-01-17T16:01:28.090Z,0
2017-01-17T16:02:37.375Z,0
2017-01-17T16:03:47.533Z,0
2017-01-17T16:04:57.306Z,0
2017-01-17T16:06:06.587Z,0
2017-01-17T16:07:16.312Z,0
2017-01-17T16:08:25.590Z,0
2017-01-17T16:09:35.304Z,0
2017-01-17T16:10:45.517Z,0
2017-01-17T16:11:55.678Z,0
2017-01-17T16:13:05.415Z,0
2017-01-17T16:14:16.013Z,0
2017-01-17T16:15:26.195Z,0
2017-01-17T16:16:39.456Z,0
2017-01-17T16:17:48.737Z,0
2017-01-17T16:18:59.342Z,0
2017-01-17T16:20:09.080Z,0
2017-01-17T16:21:18.369Z,0
2017-01-17T16:22:28.583Z,0
2017-01-17T16:23:38.312Z,0
2017-01-17T16:24:47.597Z,0
2017-01-17T16:25:56.879Z,0
2017-01-17T16:27:07.053Z,0
2017-01-17T16:28:16.826Z,0
2017-01-17T16:29:26.551Z,0
2017-01-17T16:30:37.153Z,0
2017-01-17T16:31:47.310Z,0
2017-01-17T16:32:56.599Z,0
2017-01-17T16:34:06.378Z,0
2017-01-17T16:35:16.102Z,0
2017-01-17T16:36:25.856Z,0
2017-01-17T16:37:35.585Z,0
2017-01-17T16:38:45.743Z,0
2017-01-17T16:39:55.520Z,0
2017-01-17T16:41:06.125Z,0
2017-01-17T16:42:16.298Z,0
2017-01-17T16:43:26.907Z,0
2017-01-17T16:44:37.073Z,0
2017-01-17T16:45:46.843Z,0
2017-01-17T16:46:56.128Z,0
2017-01-17T16:48:06.738Z,0
2017-01-17T16:49:16.898Z,0
2017-01-17T16:50:26.184Z,0
2017-01-17T16:51:36.841Z,0
2017-01-17T16:52:46.563Z,0
2017-01-17T16:53:57.172Z,0
2017-01-17T16:55:06.913Z,0
2017-01-17T16:56:17.075Z,0
2017-01-17T16:57:26.848Z,0
2017-01-17T16:58:36.577Z,0